ベルリン/テーゲル の空港の天気 - METARとTAF

ベルリン・テーゲル国際空港 ( EDDT / TXL ) - ドイツ ベルリン
飛行場実況気象(Metar)
観測時間01/20 18:20 CET (01/20 17:20 UTC)
風向・風速西 3m/s
視程2900m
天気現象弱い霧雨 もや
全天の4割程度の雲 雲底高度 60m
全天の8割程度の雲 雲底高度 90m
気温1℃
湿度93%
気圧1034hPa
METAREDDT 201720Z 26006KT 2900 -DZ BR SCT002 BKN003 01/00 Q1034 R88/190095 NOSIG
過去の天気等 Google飛行場航空写真 Wunderground天気予報

過去48時間のMETAR

飛行場予報(TAF)
発表時間: 1/20 18:00 CET (1/20 17:00 UTC)
予報対象時間: 20日19時 CET ~ 21日19時 CET
風向・風速南西 2m/s
視程4,000m
天気現象もや
全天の8割程度の雲 雲底高度 150m
20日19時 CET ~ 21日19時 CET に一時的に
視程2,500m
天気現象弱い霧雨 もや
全天の8割程度の雲 雲底高度 90m
20日19時 CET ~ 21日19時 CET に 確率 30% で一時的に
視程6,000m
全天の4割程度の雲 雲底高度 180m
全天の8割程度の雲 雲底高度 460m
TAF EDDT 201700Z 2018/2118 22004KT 4000 BR BKN005
TEMPO 2018/2118 2500 -DZ BR BKN003
PROB30 TEMPO 2018/2118 6000 SCT006 BKN015